Terminal Aerodrome Forecast
Issued by NWS

Home | Current Version | Previous Version | Text Only | Print | Product List | Glossary On
Versions: 1 2 3 4 5 6 7 8 9 10 11 12 13
000
FTUS43 KLSX 250900 AAA
TAFCPS
TAF AMD
KCPS 250914Z 2509/2606 23005KT P6SM OVC025
     FM251100 21005KT P6SM FEW025
     FM251600 18011G17KT P6SM BKN250
     FM252300 17007KT P6SM BKN250=

USA.gov is the U.S. government's official web portal to all federal, state and local government web resources and services.